sensor_id;sensor_type;location;lat;lon;timestamp;temperature;humidity
10263;DHT22;5177;50.068;8.156;2022-09-02T00:01:22;18.50;99.90
10263;DHT22;5177;50.068;8.156;2022-09-02T00:03:49;18.40;99.90
10263;DHT22;5177;50.068;8.156;2022-09-02T00:06:15;18.40;99.90
10263;DHT22;5177;50.068;8.156;2022-09-02T00:08:41;18.40;99.90
10263;DHT22;5177;50.068;8.156;2022-09-02T00:11:07;18.40;99.90
10263;DHT22;5177;50.068;8.156;2022-09-02T00:13:34;18.40;1.00
10263;DHT22;5177;50.068;8.156;2022-09-02T00:15:59;18.40;1.00
10263;DHT22;5177;50.068;8.156;2022-09-02T00:18:25;18.40;1.00
10263;DHT22;5177;50.068;8.156;2022-09-02T00:20:51;18.30;1.00
10263;DHT22;5177;50.068;8.156;2022-09-02T00:23:17;18.30;1.00
10263;DHT22;5177;50.068;8.156;2022-09-02T00:25:43;18.30;1.00
10263;DHT22;5177;50.068;8.156;2022-09-02T00:28:09;18.30;1.00
10263;DHT22;5177;50.068;8.156;2022-09-02T00:30:35;18.30;1.00
10263;DHT22;5177;50.068;8.156;2022-09-02T00:33:00;18.30;1.00
10263;DHT22;5177;50.068;8.156;2022-09-02T00:35:26;18.30;1.00
10263;DHT22;5177;50.068;8.156;2022-09-02T00:37:52;18.30;1.00
10263;DHT22;5177;50.068;8.156;2022-09-02T00:40:17;18.20;1.00
10263;DHT22;5177;50.068;8.156;2022-09-02T00:42:43;18.20;99.90
10263;DHT22;5177;50.068;8.156;2022-09-02T00:45:09;18.30;1.00
10263;DHT22;5177;50.068;8.156;2022-09-02T00:47:35;18.30;1.00
10263;DHT22;5177;50.068;8.156;2022-09-02T00:50:03;18.30;1.00
10263;DHT22;5177;50.068;8.156;2022-09-02T00:52:31;18.30;1.00
10263;DHT22;5177;50.068;8.156;2022-09-02T00:57:24;18.20;59.30
10263;DHT22;5177;50.068;8.156;2022-09-02T00:59:54;18.20;86.90
10263;DHT22;5177;50.068;8.156;2022-09-02T01:02:21;18.30;1.00
10263;DHT22;5177;50.068;8.156;2022-09-02T01:04:49;18.20;1.00
10263;DHT22;5177;50.068;8.156;2022-09-02T01:07:15;18.20;99.90
10263;DHT22;5177;50.068;8.156;2022-09-02T01:09:41;18.30;99.90
10263;DHT22;5177;50.068;8.156;2022-09-02T01:12:06;18.20;99.90
10263;DHT22;5177;50.068;8.156;2022-09-02T01:14:33;18.20;1.00
10263;DHT22;5177;50.068;8.156;2022-09-02T01:16:59;18.10;99.90
10263;DHT22;5177;50.068;8.156;2022-09-02T01:19:32;18.10;76.50
10263;DHT22;5177;50.068;8.156;2022-09-02T01:21:59;18.10;71.90
10263;DHT22;5177;50.068;8.156;2022-09-02T01:24:25;18.00;99.90
10263;DHT22;5177;50.068;8.156;2022-09-02T01:26:52;18.00;99.90
10263;DHT22;5177;50.068;8.156;2022-09-02T01:29:18;18.00;1.00
10263;DHT22;5177;50.068;8.156;2022-09-02T01:31:44;18.00;99.90
10263;DHT22;5177;50.068;8.156;2022-09-02T01:34:10;17.90;99.90
10263;DHT22;5177;50.068;8.156;2022-09-02T01:36:39;17.90;99.90
10263;DHT22;5177;50.068;8.156;2022-09-02T01:39:05;17.90;99.90
10263;DHT22;5177;50.068;8.156;2022-09-02T01:41:31;17.80;1.00
10263;DHT22;5177;50.068;8.156;2022-09-02T01:43:56;17.80;99.90
10263;DHT22;5177;50.068;8.156;2022-09-02T01:46:22;17.80;1.00
10263;DHT22;5177;50.068;8.156;2022-09-02T01:48:48;17.70;1.00
10263;DHT22;5177;50.068;8.156;2022-09-02T01:51:17;17.70;99.90
10263;DHT22;5177;50.068;8.156;2022-09-02T01:53:43;17.60;99.90
10263;DHT22;5177;50.068;8.156;2022-09-02T01:56:08;17.50;1.00
10263;DHT22;5177;50.068;8.156;2022-09-02T01:58:34;17.50;1.00
10263;DHT22;5177;50.068;8.156;2022-09-02T02:01:00;17.50;99.90
10263;DHT22;5177;50.068;8.156;2022-09-02T02:03:25;17.40;99.90
10263;DHT22;5177;50.068;8.156;2022-09-02T02:05:51;17.40;99.90
10263;DHT22;5177;50.068;8.156;2022-09-02T02:08:16;17.40;1.00
10263;DHT22;5177;50.068;8.156;2022-09-02T02:10:42;17.40;99.90
10263;DHT22;5177;50.068;8.156;2022-09-02T02:13:08;17.40;1.00
10263;DHT22;5177;50.068;8.156;2022-09-02T02:15:36;17.40;95.10
10263;DHT22;5177;50.068;8.156;2022-09-02T02:18:01;17.30;1.00
10263;DHT22;5177;50.068;8.156;2022-09-02T02:20:27;17.30;1.00
10263;DHT22;5177;50.068;8.156;2022-09-02T02:22:53;17.30;15.90
10263;DHT22;5177;50.068;8.156;2022-09-02T02:25:19;17.30;99.90
10263;DHT22;5177;50.068;8.156;2022-09-02T02:27:44;17.30;99.90
10263;DHT22;5177;50.068;8.156;2022-09-02T02:30:10;17.30;1.00
10263;DHT22;5177;50.068;8.156;2022-09-02T02:32:36;17.30;1.00
10263;DHT22;5177;50.068;8.156;2022-09-02T02:35:02;17.30;1.00
10263;DHT22;5177;50.068;8.156;2022-09-02T02:37:28;17.40;99.90
10263;DHT22;5177;50.068;8.156;2022-09-02T02:39:53;17.40;1.00
10263;DHT22;5177;50.068;8.156;2022-09-02T02:42:20;17.40;99.90
10263;DHT22;5177;50.068;8.156;2022-09-02T02:44:45;17.30;33.10
10263;DHT22;5177;50.068;8.156;2022-09-02T02:47:11;17.30;1.00
10263;DHT22;5177;50.068;8.156;2022-09-02T02:49:40;17.20;1.00
10263;DHT22;5177;50.068;8.156;2022-09-02T02:52:06;17.10;99.90
10263;DHT22;5177;50.068;8.156;2022-09-02T02:54:31;17.10;99.90
10263;DHT22;5177;50.068;8.156;2022-09-02T02:56:57;17.20;1.00
10263;DHT22;5177;50.068;8.156;2022-09-02T02:59:22;17.10;99.90
10263;DHT22;5177;50.068;8.156;2022-09-02T03:01:49;17.10;98.00
10263;DHT22;5177;50.068;8.156;2022-09-02T03:04:15;17.00;1.00
10263;DHT22;5177;50.068;8.156;2022-09-02T03:06:40;17.00;99.90
10263;DHT22;5177;50.068;8.156;2022-09-02T03:09:06;16.90;99.90
10263;DHT22;5177;50.068;8.156;2022-09-02T03:11:31;16.90;20.80
10263;DHT22;5177;50.068;8.156;2022-09-02T03:13:57;16.90;99.90
10263;DHT22;5177;50.068;8.156;2022-09-02T03:16:23;16.80;99.90
10263;DHT22;5177;50.068;8.156;2022-09-02T03:18:49;16.80;1.00
10263;DHT22;5177;50.068;8.156;2022-09-02T03:21:15;16.70;1.00
10263;DHT22;5177;50.068;8.156;2022-09-02T03:23:41;16.80;99.90
10263;DHT22;5177;50.068;8.156;2022-09-02T03:26:10;16.70;99.90
10263;DHT22;5177;50.068;8.156;2022-09-02T03:28:36;16.70;99.90
10263;DHT22;5177;50.068;8.156;2022-09-02T03:31:02;16.60;1.00
10263;DHT22;5177;50.068;8.156;2022-09-02T03:33:27;16.60;99.90
10263;DHT22;5177;50.068;8.156;2022-09-02T03:35:53;16.60;1.00
10263;DHT22;5177;50.068;8.156;2022-09-02T03:38:18;16.60;1.00
10263;DHT22;5177;50.068;8.156;2022-09-02T03:40:44;16.50;1.00
10263;DHT22;5177;50.068;8.156;2022-09-02T03:43:10;16.60;1.00
10263;DHT22;5177;50.068;8.156;2022-09-02T03:45:35;16.50;1.00
10263;DHT22;5177;50.068;8.156;2022-09-02T03:48:02;16.50;99.90
10263;DHT22;5177;50.068;8.156;2022-09-02T03:50:30;16.50;99.90
10263;DHT22;5177;50.068;8.156;2022-09-02T03:52:56;16.50;99.90
10263;DHT22;5177;50.068;8.156;2022-09-02T03:55:22;16.50;99.90
10263;DHT22;5177;50.068;8.156;2022-09-02T03:57:48;16.50;1.00
10263;DHT22;5177;50.068;8.156;2022-09-02T04:00:15;16.50;99.90
10263;DHT22;5177;50.068;8.156;2022-09-02T04:02:41;16.50;99.90
10263;DHT22;5177;50.068;8.156;2022-09-02T04:05:07;16.60;99.90
10263;DHT22;5177;50.068;8.156;2022-09-02T04:07:32;16.50;1.00
10263;DHT22;5177;50.068;8.156;2022-09-02T04:09:58;16.60;1.00
10263;DHT22;5177;50.068;8.156;2022-09-02T04:12:23;16.60;99.90
10263;DHT22;5177;50.068;8.156;2022-09-02T04:14:49;16.70;1.00
10263;DHT22;5177;50.068;8.156;2022-09-02T04:17:14;16.70;99.90
10263;DHT22;5177;50.068;8.156;2022-09-02T04:19:40;16.80;99.90
10263;DHT22;5177;50.068;8.156;2022-09-02T04:22:06;16.70;99.90
10263;DHT22;5177;50.068;8.156;2022-09-02T04:24:31;16.80;99.90
10263;DHT22;5177;50.068;8.156;2022-09-02T04:26:57;16.80;1.00
10263;DHT22;5177;50.068;8.156;2022-09-02T04:29:22;16.80;1.00
10263;DHT22;5177;50.068;8.156;2022-09-02T04:31:48;16.80;99.90
10263;DHT22;5177;50.068;8.156;2022-09-02T04:34:14;16.90;1.00
10263;DHT22;5177;50.068;8.156;2022-09-02T04:36:39;16.80;99.90
10263;DHT22;5177;50.068;8.156;2022-09-02T04:39:05;16.90;1.00
10263;DHT22;5177;50.068;8.156;2022-09-02T04:41:33;16.90;1.00
10263;DHT22;5177;50.068;8.156;2022-09-02T04:43:59;16.90;1.00
10263;DHT22;5177;50.068;8.156;2022-09-02T04:46:25;16.90;99.90
10263;DHT22;5177;50.068;8.156;2022-09-02T04:48:51;16.80;1.00
10263;DHT22;5177;50.068;8.156;2022-09-02T04:51:18;16.80;22.20
10263;DHT22;5177;50.068;8.156;2022-09-02T04:53:44;16.80;99.90
10263;DHT22;5177;50.068;8.156;2022-09-02T04:56:11;16.80;99.90
10263;DHT22;5177;50.068;8.156;2022-09-02T04:58:37;16.80;1.00
10263;DHT22;5177;50.068;8.156;2022-09-02T05:01:06;16.70;1.00
10263;DHT22;5177;50.068;8.156;2022-09-02T05:03:32;16.70;1.00
10263;DHT22;5177;50.068;8.156;2022-09-02T05:05:58;16.70;1.00
10263;DHT22;5177;50.068;8.156;2022-09-02T05:08:24;16.70;1.00
10263;DHT22;5177;50.068;8.156;2022-09-02T05:10:49;16.70;1.00
10263;DHT22;5177;50.068;8.156;2022-09-02T05:13:17;16.70;99.90
10263;DHT22;5177;50.068;8.156;2022-09-02T05:15:43;16.70;99.90
10263;DHT22;5177;50.068;8.156;2022-09-02T05:18:09;16.70;55.10
10263;DHT22;5177;50.068;8.156;2022-09-02T05:20:36;16.70;1.00
10263;DHT22;5177;50.068;8.156;2022-09-02T05:23:03;16.60;99.90
10263;DHT22;5177;50.068;8.156;2022-09-02T05:25:29;16.70;21.70
10263;DHT22;5177;50.068;8.156;2022-09-02T05:27:55;16.60;99.90
10263;DHT22;5177;50.068;8.156;2022-09-02T05:30:20;16.60;99.90
10263;DHT22;5177;50.068;8.156;2022-09-02T05:32:46;16.60;99.90
10263;DHT22;5177;50.068;8.156;2022-09-02T05:35:14;16.70;1.00
10263;DHT22;5177;50.068;8.156;2022-09-02T05:37:39;16.70;99.90
10263;DHT22;5177;50.068;8.156;2022-09-02T05:40:05;16.70;99.90
10263;DHT22;5177;50.068;8.156;2022-09-02T05:42:31;16.80;86.30
10263;DHT22;5177;50.068;8.156;2022-09-02T05:44:57;16.90;1.00
10263;DHT22;5177;50.068;8.156;2022-09-02T05:47:23;16.90;1.00
10263;DHT22;5177;50.068;8.156;2022-09-02T05:49:49;16.90;1.00
10263;DHT22;5177;50.068;8.156;2022-09-02T05:52:15;16.90;1.00
10263;DHT22;5177;50.068;8.156;2022-09-02T05:54:42;17.00;1.00
10263;DHT22;5177;50.068;8.156;2022-09-02T05:57:11;17.10;99.90
10263;DHT22;5177;50.068;8.156;2022-09-02T05:59:38;17.10;99.90
10263;DHT22;5177;50.068;8.156;2022-09-02T06:02:09;17.20;85.00
10263;DHT22;5177;50.068;8.156;2022-09-02T06:04:36;17.30;93.30
10263;DHT22;5177;50.068;8.156;2022-09-02T06:07:02;17.30;1.00
10263;DHT22;5177;50.068;8.156;2022-09-02T06:09:27;17.50;1.00
10263;DHT22;5177;50.068;8.156;2022-09-02T06:11:53;17.50;99.90
10263;DHT22;5177;50.068;8.156;2022-09-02T06:14:19;17.50;1.00
10263;DHT22;5177;50.068;8.156;2022-09-02T06:16:46;17.60;99.90
10263;DHT22;5177;50.068;8.156;2022-09-02T06:19:12;17.70;1.00
10263;DHT22;5177;50.068;8.156;2022-09-02T06:21:38;17.80;99.90
10263;DHT22;5177;50.068;8.156;2022-09-02T06:24:04;17.90;1.00
10263;DHT22;5177;50.068;8.156;2022-09-02T06:26:30;18.00;86.10
10263;DHT22;5177;50.068;8.156;2022-09-02T06:28:56;18.10;1.00
10263;DHT22;5177;50.068;8.156;2022-09-02T06:31:22;18.30;99.90
10263;DHT22;5177;50.068;8.156;2022-09-02T06:33:49;18.30;1.00
10263;DHT22;5177;50.068;8.156;2022-09-02T06:36:16;18.50;99.90
10263;DHT22;5177;50.068;8.156;2022-09-02T06:38:42;18.50;99.90
10263;DHT22;5177;50.068;8.156;2022-09-02T06:41:12;18.50;99.90
10263;DHT22;5177;50.068;8.156;2022-09-02T06:43:38;18.60;84.30
10263;DHT22;5177;50.068;8.156;2022-09-02T06:46:04;18.60;99.90
10263;DHT22;5177;50.068;8.156;2022-09-02T06:48:29;18.70;1.00
10263;DHT22;5177;50.068;8.156;2022-09-02T06:50:55;18.70;1.00
10263;DHT22;5177;50.068;8.156;2022-09-02T06:53:20;18.70;1.00
10263;DHT22;5177;50.068;8.156;2022-09-02T06:55:46;18.70;1.00
10263;DHT22;5177;50.068;8.156;2022-09-02T06:58:12;18.80;1.00
10263;DHT22;5177;50.068;8.156;2022-09-02T07:00:38;18.80;1.00
10263;DHT22;5177;50.068;8.156;2022-09-02T07:03:04;18.80;1.00
10263;DHT22;5177;50.068;8.156;2022-09-02T07:08:46;19.00;99.90
10263;DHT22;5177;50.068;8.156;2022-09-02T07:11:22;19.10;99.90
10263;DHT22;5177;50.068;8.156;2022-09-02T07:13:48;19.30;99.90
10263;DHT22;5177;50.068;8.156;2022-09-02T07:16:14;19.40;26.20
10263;DHT22;5177;50.068;8.156;2022-09-02T07:18:39;19.60;1.00
10263;DHT22;5177;50.068;8.156;2022-09-02T07:21:07;19.70;1.00
10263;DHT22;5177;50.068;8.156;2022-09-02T07:23:32;19.70;1.00
10263;DHT22;5177;50.068;8.156;2022-09-02T07:25:58;19.80;1.00
10263;DHT22;5177;50.068;8.156;2022-09-02T07:28:23;19.90;1.00
10263;DHT22;5177;50.068;8.156;2022-09-02T07:30:49;20.00;1.00
10263;DHT22;5177;50.068;8.156;2022-09-02T07:33:18;20.20;99.90
10263;DHT22;5177;50.068;8.156;2022-09-02T07:35:45;20.20;99.90
10263;DHT22;5177;50.068;8.156;2022-09-02T07:38:11;20.30;99.90
10263;DHT22;5177;50.068;8.156;2022-09-02T07:40:37;20.40;99.90
10263;DHT22;5177;50.068;8.156;2022-09-02T07:43:04;20.40;99.90
10263;DHT22;5177;50.068;8.156;2022-09-02T07:45:30;20.50;99.90
10263;DHT22;5177;50.068;8.156;2022-09-02T07:47:55;20.60;99.90
10263;DHT22;5177;50.068;8.156;2022-09-02T07:50:21;20.70;89.30
10263;DHT22;5177;50.068;8.156;2022-09-02T07:52:46;20.90;53.90
10263;DHT22;5177;50.068;8.156;2022-09-02T07:55:14;21.00;19.10
10263;DHT22;5177;50.068;8.156;2022-09-02T07:57:39;21.20;1.00
10263;DHT22;5177;50.068;8.156;2022-09-02T08:00:05;21.30;1.00
10263;DHT22;5177;50.068;8.156;2022-09-02T08:02:31;21.50;1.00
10263;DHT22;5177;50.068;8.156;2022-09-02T08:04:56;21.60;1.00
10263;DHT22;5177;50.068;8.156;2022-09-02T08:07:22;21.70;1.00
10263;DHT22;5177;50.068;8.156;2022-09-02T08:09:49;21.70;1.00
10263;DHT22;5177;50.068;8.156;2022-09-02T08:12:14;21.90;1.00
10263;DHT22;5177;50.068;8.156;2022-09-02T08:14:40;22.00;1.00
10263;DHT22;5177;50.068;8.156;2022-09-02T08:17:06;22.20;1.00
10263;DHT22;5177;50.068;8.156;2022-09-02T08:19:32;22.30;1.00
10263;DHT22;5177;50.068;8.156;2022-09-02T08:22:06;22.40;1.00
10263;DHT22;5177;50.068;8.156;2022-09-02T08:24:32;22.50;1.00
10263;DHT22;5177;50.068;8.156;2022-09-02T08:26:58;22.70;99.90
10263;DHT22;5177;50.068;8.156;2022-09-02T08:29:24;22.70;99.90
10263;DHT22;5177;50.068;8.156;2022-09-02T08:31:50;22.60;99.90
10263;DHT22;5177;50.068;8.156;2022-09-02T08:34:15;22.70;99.90
10263;DHT22;5177;50.068;8.156;2022-09-02T08:36:41;22.80;99.90
10263;DHT22;5177;50.068;8.156;2022-09-02T08:39:08;22.80;99.90
10263;DHT22;5177;50.068;8.156;2022-09-02T08:44:02;22.90;99.90
10263;DHT22;5177;50.068;8.156;2022-09-02T08:46:29;22.90;99.90
10263;DHT22;5177;50.068;8.156;2022-09-02T08:51:28;23.10;99.90
10263;DHT22;5177;50.068;8.156;2022-09-02T08:56:39;23.30;99.90
10263;DHT22;5177;50.068;8.156;2022-09-02T08:59:06;23.40;99.90
10263;DHT22;5177;50.068;8.156;2022-09-02T09:04:11;23.60;99.90
10263;DHT22;5177;50.068;8.156;2022-09-02T09:11:41;24.10;99.90
10263;DHT22;5177;50.068;8.156;2022-09-02T09:14:12;24.00;99.90
10263;DHT22;5177;50.068;8.156;2022-09-02T09:16:47;24.10;99.90
10263;DHT22;5177;50.068;8.156;2022-09-02T09:19:20;24.20;99.90
10263;DHT22;5177;50.068;8.156;2022-09-02T09:21:50;24.20;99.90
10263;DHT22;5177;50.068;8.156;2022-09-02T09:26:56;24.50;99.90
10263;DHT22;5177;50.068;8.156;2022-09-02T09:29:22;24.70;99.90
10263;DHT22;5177;50.068;8.156;2022-09-02T09:31:52;24.90;90.90
10263;DHT22;5177;50.068;8.156;2022-09-02T09:34:18;24.90;66.30
10263;DHT22;5177;50.068;8.156;2022-09-02T09:36:45;25.10;64.50
10263;DHT22;5177;50.068;8.156;2022-09-02T09:39:16;25.40;39.30
10263;DHT22;5177;50.068;8.156;2022-09-02T09:41:42;25.90;1.00
10263;DHT22;5177;50.068;8.156;2022-09-02T09:44:08;26.00;1.00
10263;DHT22;5177;50.068;8.156;2022-09-02T09:46:33;26.10;1.00
10263;DHT22;5177;50.068;8.156;2022-09-02T09:48:59;26.10;1.00
10263;DHT22;5177;50.068;8.156;2022-09-02T09:51:24;26.30;1.00
10263;DHT22;5177;50.068;8.156;2022-09-02T09:53:50;26.30;1.00
10263;DHT22;5177;50.068;8.156;2022-09-02T09:58:43;26.60;1.00
10263;DHT22;5177;50.068;8.156;2022-09-02T10:01:51;26.60;1.00
10263;DHT22;5177;50.068;8.156;2022-09-02T10:04:09;26.60;1.00
10263;DHT22;5177;50.068;8.156;2022-09-02T10:06:36;26.60;1.00
10263;DHT22;5177;50.068;8.156;2022-09-02T10:09:04;26.80;1.00
10263;DHT22;5177;50.068;8.156;2022-09-02T10:11:30;27.00;1.00
10263;DHT22;5177;50.068;8.156;2022-09-02T10:13:58;26.90;1.00
10263;DHT22;5177;50.068;8.156;2022-09-02T10:21:54;26.70;1.00
10263;DHT22;5177;50.068;8.156;2022-09-02T10:24:43;26.80;1.00
10263;DHT22;5177;50.068;8.156;2022-09-02T10:27:16;26.80;1.00
10263;DHT22;5177;50.068;8.156;2022-09-02T10:37:14;26.30;1.00
10263;DHT22;5177;50.068;8.156;2022-09-02T10:42:23;26.20;1.00
10263;DHT22;5177;50.068;8.156;2022-09-02T10:44:58;26.30;1.00
10263;DHT22;5177;50.068;8.156;2022-09-02T10:47:33;26.40;1.00
10263;DHT22;5177;50.068;8.156;2022-09-02T10:52:38;26.90;1.00
10263;DHT22;5177;50.068;8.156;2022-09-02T10:58:02;26.90;1.00
10263;DHT22;5177;50.068;8.156;2022-09-02T11:00:30;27.10;1.00
10263;DHT22;5177;50.068;8.156;2022-09-02T11:03:13;27.40;1.00
10263;DHT22;5177;50.068;8.156;2022-09-02T11:05:50;27.60;1.00
10263;DHT22;5177;50.068;8.156;2022-09-02T11:08:19;27.70;1.00
10263;DHT22;5177;50.068;8.156;2022-09-02T11:10:55;27.60;1.00
10263;DHT22;5177;50.068;8.156;2022-09-02T11:14:13;27.70;1.00
10263;DHT22;5177;50.068;8.156;2022-09-02T11:16:13;27.70;1.00
10263;DHT22;5177;50.068;8.156;2022-09-02T11:18:45;27.70;1.00
10263;DHT22;5177;50.068;8.156;2022-09-02T11:23:44;28.00;1.00
10263;DHT22;5177;50.068;8.156;2022-09-02T11:26:17;27.90;1.00
10263;DHT22;5177;50.068;8.156;2022-09-02T11:31:18;27.90;1.00
10263;DHT22;5177;50.068;8.156;2022-09-02T11:36:37;27.90;1.00
10263;DHT22;5177;50.068;8.156;2022-09-02T11:39:05;27.80;1.00
10263;DHT22;5177;50.068;8.156;2022-09-02T11:54:22;27.40;1.00
10263;DHT22;5177;50.068;8.156;2022-09-02T11:56:51;27.20;1.00
10263;DHT22;5177;50.068;8.156;2022-09-02T11:59:22;27.40;1.00
10263;DHT22;5177;50.068;8.156;2022-09-02T12:01:51;27.70;1.00
10263;DHT22;5177;50.068;8.156;2022-09-02T12:04:23;27.90;1.00
10263;DHT22;5177;50.068;8.156;2022-09-02T12:09:42;28.30;1.00
10263;DHT22;5177;50.068;8.156;2022-09-02T12:12:08;28.40;1.00
10263;DHT22;5177;50.068;8.156;2022-09-02T12:17:12;28.30;1.00
10263;DHT22;5177;50.068;8.156;2022-09-02T12:20:01;28.50;1.00
10263;DHT22;5177;50.068;8.156;2022-09-02T12:22:31;28.60;1.00
10263;DHT22;5177;50.068;8.156;2022-09-02T12:24:57;28.60;1.00
10263;DHT22;5177;50.068;8.156;2022-09-02T12:27:33;28.70;1.00
10263;DHT22;5177;50.068;8.156;2022-09-02T12:30:03;28.40;1.00
10263;DHT22;5177;50.068;8.156;2022-09-02T12:35:10;28.60;1.00
10263;DHT22;5177;50.068;8.156;2022-09-02T12:37:56;28.70;1.00
10263;DHT22;5177;50.068;8.156;2022-09-02T12:40:24;28.70;1.00
10263;DHT22;5177;50.068;8.156;2022-09-02T12:42:51;28.80;1.00
10263;DHT22;5177;50.068;8.156;2022-09-02T12:45:24;28.50;1.00
10263;DHT22;5177;50.068;8.156;2022-09-02T12:48:09;28.40;1.00
10263;DHT22;5177;50.068;8.156;2022-09-02T12:55:36;28.50;1.00
10263;DHT22;5177;50.068;8.156;2022-09-02T12:58:07;28.70;1.00
10263;DHT22;5177;50.068;8.156;2022-09-02T13:01:18;28.80;1.00
10263;DHT22;5177;50.068;8.156;2022-09-02T13:04:06;29.00;1.00
10263;DHT22;5177;50.068;8.156;2022-09-02T13:06:16;29.30;1.00
10263;DHT22;5177;50.068;8.156;2022-09-02T13:25:10;29.40;1.00
10263;DHT22;5177;50.068;8.156;2022-09-02T13:30:09;29.40;1.00
10263;DHT22;5177;50.068;8.156;2022-09-02T13:32:38;29.30;1.00
10263;DHT22;5177;50.068;8.156;2022-09-02T13:35:06;29.60;1.00
10263;DHT22;5177;50.068;8.156;2022-09-02T13:37:37;29.70;1.00
10263;DHT22;5177;50.068;8.156;2022-09-02T13:40:05;29.60;1.00
10263;DHT22;5177;50.068;8.156;2022-09-02T13:42:31;29.20;1.00
10263;DHT22;5177;50.068;8.156;2022-09-02T13:45:16;29.00;1.00
10263;DHT22;5177;50.068;8.156;2022-09-02T13:47:42;28.90;1.00
10263;DHT22;5177;50.068;8.156;2022-09-02T13:50:08;29.40;1.00
10263;DHT22;5177;50.068;8.156;2022-09-02T13:52:35;29.50;1.00
10263;DHT22;5177;50.068;8.156;2022-09-02T13:55:02;29.50;1.00
10263;DHT22;5177;50.068;8.156;2022-09-02T13:57:28;29.90;1.00
10263;DHT22;5177;50.068;8.156;2022-09-02T13:59:55;30.20;1.00
10263;DHT22;5177;50.068;8.156;2022-09-02T14:02:31;30.20;1.00
10263;DHT22;5177;50.068;8.156;2022-09-02T14:05:10;30.20;1.00
10263;DHT22;5177;50.068;8.156;2022-09-02T14:07:42;30.30;1.00
10263;DHT22;5177;50.068;8.156;2022-09-02T14:10:10;30.00;1.00
10263;DHT22;5177;50.068;8.156;2022-09-02T14:12:36;29.50;1.00
10263;DHT22;5177;50.068;8.156;2022-09-02T14:15:02;29.80;1.00
10263;DHT22;5177;50.068;8.156;2022-09-02T14:17:29;30.00;1.00
10263;DHT22;5177;50.068;8.156;2022-09-02T14:22:38;30.50;1.00
10263;DHT22;5177;50.068;8.156;2022-09-02T14:25:12;31.60;99.90
10263;DHT22;5177;50.068;8.156;2022-09-02T14:27:38;32.60;99.90
10263;DHT22;5177;50.068;8.156;2022-09-02T14:30:04;33.20;99.90
10263;DHT22;5177;50.068;8.156;2022-09-02T14:32:33;33.90;99.90
10263;DHT22;5177;50.068;8.156;2022-09-02T14:40:14;34.20;99.90
10263;DHT22;5177;50.068;8.156;2022-09-02T14:45:09;35.40;99.90
10263;DHT22;5177;50.068;8.156;2022-09-02T14:47:36;35.70;99.90
10263;DHT22;5177;50.068;8.156;2022-09-02T14:50:02;35.90;99.90
10263;DHT22;5177;50.068;8.156;2022-09-02T14:52:29;35.70;99.90
10263;DHT22;5177;50.068;8.156;2022-09-02T14:54:57;35.60;99.90
10263;DHT22;5177;50.068;8.156;2022-09-02T14:57:30;35.40;99.90
10263;DHT22;5177;50.068;8.156;2022-09-02T14:59:56;35.30;99.90
10263;DHT22;5177;50.068;8.156;2022-09-02T15:02:23;35.50;99.90
10263;DHT22;5177;50.068;8.156;2022-09-02T15:04:56;35.60;99.90
10263;DHT22;5177;50.068;8.156;2022-09-02T15:07:22;35.40;99.90
10263;DHT22;5177;50.068;8.156;2022-09-02T15:09:48;35.70;99.90
10263;DHT22;5177;50.068;8.156;2022-09-02T15:12:18;35.50;99.90
10263;DHT22;5177;50.068;8.156;2022-09-02T15:14:44;35.50;99.90
10263;DHT22;5177;50.068;8.156;2022-09-02T15:17:10;35.10;99.90
10263;DHT22;5177;50.068;8.156;2022-09-02T15:19:36;35.20;99.90
10263;DHT22;5177;50.068;8.156;2022-09-02T15:22:01;35.10;99.90
10263;DHT22;5177;50.068;8.156;2022-09-02T15:24:27;35.00;99.90
10263;DHT22;5177;50.068;8.156;2022-09-02T15:26:52;34.80;99.90
10263;DHT22;5177;50.068;8.156;2022-09-02T15:29:18;34.90;99.90
10263;DHT22;5177;50.068;8.156;2022-09-02T15:31:43;35.20;99.90
10263;DHT22;5177;50.068;8.156;2022-09-02T15:34:10;34.50;99.90
10263;DHT22;5177;50.068;8.156;2022-09-02T15:36:35;34.60;99.90
10263;DHT22;5177;50.068;8.156;2022-09-02T15:39:01;34.50;99.90
10263;DHT22;5177;50.068;8.156;2022-09-02T15:41:26;34.50;99.90
10263;DHT22;5177;50.068;8.156;2022-09-02T15:43:55;34.50;99.90
10263;DHT22;5177;50.068;8.156;2022-09-02T15:46:25;34.50;99.90
10263;DHT22;5177;50.068;8.156;2022-09-02T15:48:51;34.50;99.90
10263;DHT22;5177;50.068;8.156;2022-09-02T15:51:19;34.10;99.90
10263;DHT22;5177;50.068;8.156;2022-09-02T15:53:45;32.70;99.90
10263;DHT22;5177;50.068;8.156;2022-09-02T15:56:20;31.30;1.00
10263;DHT22;5177;50.068;8.156;2022-09-02T15:58:45;30.10;1.00
10263;DHT22;5177;50.068;8.156;2022-09-02T16:01:11;29.00;1.00
10263;DHT22;5177;50.068;8.156;2022-09-02T16:03:37;28.10;1.00
10263;DHT22;5177;50.068;8.156;2022-09-02T16:06:03;27.40;1.00
10263;DHT22;5177;50.068;8.156;2022-09-02T16:08:29;27.00;1.00
10263;DHT22;5177;50.068;8.156;2022-09-02T16:10:55;26.60;1.00
10263;DHT22;5177;50.068;8.156;2022-09-02T16:13:20;26.20;1.00
10263;DHT22;5177;50.068;8.156;2022-09-02T16:15:46;26.00;1.00
10263;DHT22;5177;50.068;8.156;2022-09-02T16:18:12;25.80;1.00
10263;DHT22;5177;50.068;8.156;2022-09-02T16:20:38;25.70;1.00
10263;DHT22;5177;50.068;8.156;2022-09-02T16:23:03;25.60;1.00
10263;DHT22;5177;50.068;8.156;2022-09-02T16:25:29;25.40;1.00
10263;DHT22;5177;50.068;8.156;2022-09-02T16:27:54;25.40;1.00
10263;DHT22;5177;50.068;8.156;2022-09-02T16:30:21;25.30;1.00
10263;DHT22;5177;50.068;8.156;2022-09-02T16:32:46;25.20;1.00
10263;DHT22;5177;50.068;8.156;2022-09-02T16:35:15;25.20;1.00
10263;DHT22;5177;50.068;8.156;2022-09-02T16:37:40;25.10;1.00
10263;DHT22;5177;50.068;8.156;2022-09-02T16:40:06;25.10;1.00
10263;DHT22;5177;50.068;8.156;2022-09-02T16:42:33;25.00;1.00
10263;DHT22;5177;50.068;8.156;2022-09-02T16:45:02;25.00;1.00
10263;DHT22;5177;50.068;8.156;2022-09-02T16:47:28;24.90;1.00
10263;DHT22;5177;50.068;8.156;2022-09-02T16:49:54;24.90;1.00
10263;DHT22;5177;50.068;8.156;2022-09-02T16:52:20;24.80;1.00
10263;DHT22;5177;50.068;8.156;2022-09-02T16:54:46;24.70;1.00
10263;DHT22;5177;50.068;8.156;2022-09-02T16:57:11;24.70;1.00
10263;DHT22;5177;50.068;8.156;2022-09-02T16:59:37;24.70;1.00
10263;DHT22;5177;50.068;8.156;2022-09-02T17:02:02;24.70;1.00
10263;DHT22;5177;50.068;8.156;2022-09-02T17:04:28;24.80;1.00
10263;DHT22;5177;50.068;8.156;2022-09-02T17:07:03;24.70;1.00
10263;DHT22;5177;50.068;8.156;2022-09-02T17:09:28;24.60;1.00
10263;DHT22;5177;50.068;8.156;2022-09-02T17:11:55;24.60;1.00
10263;DHT22;5177;50.068;8.156;2022-09-02T17:14:20;24.50;1.00
10263;DHT22;5177;50.068;8.156;2022-09-02T17:16:47;24.40;1.00
10263;DHT22;5177;50.068;8.156;2022-09-02T17:19:13;24.40;1.00
10263;DHT22;5177;50.068;8.156;2022-09-02T17:21:48;24.30;1.00
10263;DHT22;5177;50.068;8.156;2022-09-02T17:24:15;24.20;1.00
10263;DHT22;5177;50.068;8.156;2022-09-02T17:26:41;24.20;1.00
10263;DHT22;5177;50.068;8.156;2022-09-02T17:29:11;24.10;1.00
10263;DHT22;5177;50.068;8.156;2022-09-02T17:31:37;24.10;1.00
10263;DHT22;5177;50.068;8.156;2022-09-02T17:34:06;24.00;1.00
10263;DHT22;5177;50.068;8.156;2022-09-02T17:36:35;23.90;1.00
10263;DHT22;5177;50.068;8.156;2022-09-02T17:39:06;23.80;1.00
10263;DHT22;5177;50.068;8.156;2022-09-02T17:41:32;23.80;1.00
10263;DHT22;5177;50.068;8.156;2022-09-02T17:44:16;23.80;1.00
10263;DHT22;5177;50.068;8.156;2022-09-02T17:46:42;23.70;1.00